Latest Weather Observations for Rhyll

IDV60801

Issued at 9:22 pm EST Wednesday 19 September 2018 (issued every 10 minutes, with the page automatically refreshed every 10 minutes)

About weather observations | Map of weather stations | Latest weather observations for VIC | Other Formats
Station Details ID: 086373 Name: RHYLL Lat: -38.46 Lon: 145.31 Height: 13.4 m
Data from the previous 72 hours. | See also: Recent months at Rhyll
Date/Time
EST
Temp
°C
App
Temp
°C
Dew
Point
°C
Rel
Hum
%
Delta-T
°C
Wind Press
QNH
hPa
Press
MSL
hPa
Rain since
9am
mm
Dir  Spd
km/h
Gust
km/h
Spd
kts
Gust
kts
19/09:00pm 9.6 7.0 4.2 69 2.4 WSW 7 13 4 7 1017.3 1017.3 0.6
19/08:30pm 8.9 6.5 4.3 73 2.0 W 6 9 3 5 1017.1 1017.1 0.6
19/08:00pm 9.6 7.1 4.6 71 2.2 W 7 11 4 6 1016.7 1016.7 0.6
19/07:30pm 9.5 7.0 4.5 71 2.2 W 7 11 4 6 1016.4 1016.4 0.6
19/07:00pm 9.5 7.0 4.7 72 2.1 W 7 9 4 5 1016.1 1016.1 0.6
19/06:30pm 9.9 7.6 4.7 70 2.3 W 6 13 3 7 1015.9 1015.9 0.6
19/06:00pm 10.7 7.8 4.6 66 2.7 WSW 9 19 5 10 1015.6 1015.6 0.6
19/05:30pm 11.5 8.6 4.7 63 3.1 WSW 9 20 5 11 1015.3 1015.3 0.6
19/05:00pm 12.1 8.4 4.6 60 3.4 WSW 13 24 7 13 1014.9 1014.9 0.6
19/04:30pm 12.6 8.3 5.1 60 3.5 WSW 17 26 9 14 1014.7 1014.7 0.6
19/04:00pm 12.6 8.3 5.3 61 3.4 WSW 17 28 9 15 1014.5 1014.5 0.6
19/03:30pm 12.9 8.5 4.8 58 3.7 WSW 17 33 9 18 1014.2 1014.2 0.6
19/03:00pm 12.9 8.7 5.8 62 3.3 WSW 17 30 9 16 1014.0 1014.0 0.6
19/02:30pm 13.3 8.8 6.2 62 3.4 WSW 19 35 10 19 1013.8 1013.8 0.6
19/02:00pm 12.1 7.3 4.8 61 3.3 W 19 32 10 17 1013.6 1013.6 0.6
19/01:30pm 9.3 5.5 5.9 79 1.6 SW 15 24 8 13 1013.7 1013.7 0.6
19/01:00pm 12.1 7.1 4.8 61 3.3 W 20 37 11 20 1013.3 1013.3 0.0
19/12:30pm 12.2 7.4 4.9 61 3.3 W 19 32 10 17 1013.2 1013.2 0.0
19/12:00pm 11.2 7.2 5.1 66 2.8 W 15 28 8 15 1013.1 1013.1 0.0
19/11:30am 11.9 7.6 5.1 63 3.1 W 17 30 9 16 1012.8 1012.8 0.0
19/11:00am 11.8 7.9 5.4 65 3.0 W 15 30 8 16 1012.7 1012.7 0.0
19/10:30am 11.5 8.0 5.6 67 2.7 WNW 13 24 7 13 1012.4 1012.4 0.0
19/10:00am 10.9 7.3 5.2 68 2.6 WNW 13 26 7 14 1012.3 1012.3 0.0
19/09:30am 10.3 6.7 5.1 70 2.4 WNW 13 24 7 13 1012.2 1012.2 0.0
19/09:00am 9.8 6.2 5.2 73 2.1 WNW 13 24 7 13 1012.0 1012.0 1.6
19/08:30am 9.3 4.9 4.9 74 2.0 WNW 17 30 9 16 1011.7 1011.7 1.6
19/08:00am 8.9 5.3 4.9 76 1.8 WNW 13 22 7 12 1011.4 1011.4 1.6
19/07:30am 8.6 5.0 5.2 79 1.5 WNW 13 26 7 14 1010.9 1010.9 1.6
19/07:00am 8.3 4.7 4.9 79 1.5 W 13 24 7 13 1010.6 1010.6 1.6
19/06:30am 8.2 5.0 5.1 81 1.4 WNW 11 22 6 12 1010.0 1010.0 1.6
19/06:00am 8.2 5.0 5.1 81 1.4 WNW 11 20 6 11 1009.6 1009.6 1.6
19/05:30am 8.6 5.0 5.2 79 1.5 WNW 13 28 7 15 1009.2 1009.2 1.6
19/05:00am 8.6 5.5 5.4 80 1.4 WNW 11 26 6 14 1008.9 1008.9 1.6
19/04:30am 8.8 6.1 5.4 79 1.5 WNW 9 24 5 13 1008.8 1008.8 1.6
19/04:00am 9.1 6.3 5.3 77 1.7 WNW 9 22 5 12 1008.7 1008.7 1.6
19/03:30am 9.3 5.4 5.5 77 1.7 WNW 15 32 8 17 1008.7 1008.7 1.6
19/03:00am 9.6 6.1 5.6 76 1.8 WNW 13 30 7 16 1008.4 1008.4 1.6
19/02:30am 9.5 6.5 5.9 78 1.7 WNW 11 19 6 10 1008.4 1008.4 1.6
19/02:00am 9.6 6.2 6.0 78 1.7 W 13 22 7 12 1008.9 1008.9 1.6
19/01:30am 9.5 7.7 7.1 85 1.1 WNW 6 15 3 8 1009.2 1009.2 1.6
19/01:00am 9.9 8.2 7.7 86 1.1 NW 6 13 3 7 1009.7 1009.7 1.6
19/12:30am 10.1 7.6 8.0 87 1.0 NNW 11 19 6 10 1010.2 1010.2 1.6
19/12:00am 9.8 8.1 7.6 86 1.1 NW 6 11 3 6 1010.4 1010.4 1.6
 
Date/Time
EST
Temp
°C
App
Temp
°C
Dew
Point
°C
Rel
Hum
%
Delta-T
°C
Wind Press
QNH
hPa
Press
MSL
hPa
Rain since
9am
mm
Dir  Spd
km/h
Gust
km/h
Spd
kts
Gust
kts
18/11:30pm 9.8 7.5 7.4 85 1.1 NW 9 19 5 10 1010.4 1010.4 1.6
18/11:00pm 10.3 7.9 7.2 81 1.5 NW 9 19 5 10 1010.4 1010.4 1.2
18/10:30pm 10.1 8.4 7.5 84 1.2 NW 6 17 3 9 1010.1 1010.1 1.2
18/10:00pm 10.7 9.4 9.3 91 0.7 NW 6 13 3 7 1009.9 1009.9 1.2
18/09:30pm 11.2 10.1 10.0 92 0.6 NNW 6 9 3 5 1009.9 1009.9 1.0
18/09:00pm 10.9 9.7 9.5 91 0.7 NNW 6 7 3 4 1009.9 1009.9 0.8
18/08:30pm 10.8 9.6 9.4 91 0.7 WSW 6 9 3 5 1009.8 1009.8 0.4
18/08:00pm 11.0 9.2 9.4 90 0.8 SW 9 17 5 9 1009.6 1009.6 0.4
18/07:30pm 11.6 8.9 8.8 83 1.4 WSW 13 22 7 12 1009.2 1009.2 0.2
18/07:00pm 13.4 9.9 7.2 66 3.0 W 15 26 8 14 1008.7 1008.7 0.2
18/06:30pm 13.8 11.4 6.9 63 3.3 NW 9 19 5 10 1008.1 1008.1 0.2
18/06:00pm 14.2 8.5 6.8 61 3.6 NNW 26 43 14 23 1007.6 1007.6 0.2
18/05:30pm 14.3 6.1 6.6 60 3.7 NNW 39 61 21 33 1007.4 1007.4 0.2
18/05:21pm 14.6 7.1 6.2 57 4.0 NNW 35 61 19 33 1007.4 1007.4 0.2
18/05:00pm 15.2 8.7 6.5 56 4.2 NNW 30 46 16 25 1007.6 1007.6 0.2
18/04:30pm 16.3 11.8 6.2 51 4.9 NW 19 33 10 18 1007.8 1007.8 0.2
18/04:00pm 15.9 13.6 7.4 57 4.2 NNW 9 19 5 10 1007.6 1007.6 0.2
18/03:30pm 14.8 11.5 6.6 58 4.0 NW 13 28 7 15 1007.4 1007.4 0.2
18/03:00pm 14.6 10.5 6.2 57 4.0 WNW 17 32 9 17 1007.2 1007.2 0.2
18/02:30pm 14.9 12.3 6.0 55 4.3 WNW 9 20 5 11 1006.9 1006.9 0.2
18/02:00pm 15.3 7.5 4.7 49 5.0 NNW 35 54 19 29 1007.5 1007.5 0.0
18/01:34pm 16.7 9.1 3.7 42 6.0 NNW 33 72 18 39 1007.1 1007.1 0.0
18/01:33pm 16.6 9.5 5.3 47 5.4 NNW 32 50 17 27 1007.1 1007.1 0.0
18/01:30pm 16.6 9.8 4.9 46 5.6 NNW 30 44 16 24 1007.4 1007.4 0.0
18/01:00pm 17.2 9.2 3.8 41 6.3 NNW 35 48 19 26 1007.2 1007.2 0.0
18/12:46pm 16.6 9.1 4.3 44 5.8 NNW 33 52 18 28 1007.0 1007.0 0.0
18/12:30pm 16.6 8.6 4.0 43 5.9 NNW 35 46 19 25 1007.2 1007.2 0.0
18/12:00pm 16.7 8.8 4.1 43 5.9 NNW 35 46 19 25 1007.0 1007.0 0.0
18/11:30am 16.4 9.2 4.8 46 5.5 NNW 32 48 17 26 1007.5 1007.5 0.0
18/11:00am 16.4 8.8 4.1 44 5.7 NNW 33 44 18 24 1008.0 1008.0 0.0
18/10:43am 17.0 9.7 2.2 37 6.7 NNW 30 50 16 27 1008.3 1008.3 0.0
18/10:30am 17.9 10.8 3.4 38 6.7 NNW 30 43 16 23 1008.7 1008.7 0.0
18/10:00am 16.6 9.0 2.6 39 6.4 N 32 44 17 24 1008.4 1008.4 0.0
18/09:30am 15.8 6.8 2.2 40 6.1 N 39 46 21 25 1009.1 1009.1 0.0
18/09:00am 15.0 5.2 2.5 43 5.6 N 43 54 23 29 1009.5 1009.5 0.2
18/08:30am 14.8 6.5 2.0 42 5.6 N 35 46 19 25 1009.9 1009.9 0.2
18/08:00am 14.6 5.9 2.2 43 5.5 N 37 48 20 26 1010.3 1010.3 0.2
18/07:30am 14.1 6.3 2.7 46 5.1 N 33 43 18 23 1010.2 1010.2 0.2
18/07:00am 13.7 5.4 2.0 45 5.1 N 35 44 19 24 1010.2 1010.2 0.2
18/06:30am 13.3 5.6 2.5 48 4.7 N 32 43 17 23 1009.6 1009.6 0.2
18/06:00am 13.2 5.9 2.7 49 4.6 N 30 37 16 20 1010.3 1010.3 0.2
18/05:30am 13.3 6.0 2.5 48 4.7 N 30 37 16 20 1010.6 1010.6 0.2
18/05:00am 12.9 6.4 2.5 49 4.6 N 26 32 14 17 1010.8 1010.8 0.2
18/04:30am 12.9 6.0 2.5 49 4.5 N 28 33 15 18 1010.8 1010.8 0.2
18/04:00am 12.7 5.8 2.6 50 4.4 N 28 32 15 17 1011.1 1011.1 0.2
18/03:30am 12.6 5.5 3.6 54 4.0 N 30 37 16 20 1011.3 1011.3 0.2
18/03:00am 12.3 5.3 4.0 57 3.7 N 30 35 16 19 1011.5 1011.5 0.2
18/02:30am 12.1 5.1 4.1 58 3.6 N 30 35 16 19 1012.1 1012.1 0.2
18/02:00am 12.4 5.4 3.9 56 3.8 N 30 35 16 19 1012.4 1012.4 0.2
18/01:30am 12.5 4.8 3.5 54 4.0 N 33 39 18 21 1012.7 1012.7 0.2
18/01:00am 12.8 5.2 4.0 55 4.0 N 33 41 18 22 1012.7 1012.7 0.2
18/12:30am 12.0 5.9 4.7 61 3.3 N 26 33 14 18 1012.9 1012.9 0.2
18/12:00am 11.4 8.1 4.6 63 3.1 N 11 20 6 11 1013.0 1013.0 0.2
 
Date/Time
EST
Temp
°C
App
Temp
°C
Dew
Point
°C
Rel
Hum
%
Delta-T
°C
Wind Press
QNH
hPa
Press
MSL
hPa
Rain since
9am
mm
Dir  Spd
km/h
Gust
km/h
Spd
kts
Gust
kts
17/11:30pm 11.6 6.3 4.8 63 3.1 NE 22 26 12 14 1013.4 1013.4 0.2
17/11:00pm 11.5 6.6 5.2 65 2.9 NNE 20 24 11 13 1013.9 1013.9 0.2
17/10:30pm 11.3 6.5 5.4 67 2.7 NNE 20 24 11 13 1014.3 1014.3 0.2
17/10:00pm 11.3 6.1 5.4 67 2.7 NE 22 24 12 13 1014.6 1014.6 0.2
17/09:30pm 11.8 6.7 5.9 67 2.8 NE 22 26 12 14 1015.0 1015.0 0.2
17/09:00pm 11.9 6.5 6.2 68 2.7 NE 24 28 13 15 1015.4 1015.4 0.2
17/08:30pm 12.4 7.1 6.9 69 2.6 NE 24 28 13 15 1015.6 1015.6 0.2
17/08:00pm 13.1 7.9 5.5 60 3.6 NNE 22 30 12 16 1015.7 1015.7 0.2
17/07:30pm 13.4 9.4 5.1 57 3.9 NNE 15 24 8 13 1015.8 1015.8 0.2
17/07:00pm 13.6 9.7 5.5 58 3.8 NNE 15 24 8 13 1015.8 1015.8 0.2
17/06:30pm 13.7 10.3 6.1 60 3.6 NNE 13 22 7 12 1015.9 1015.9 0.2
17/06:00pm 14.4 10.2 5.5 55 4.2 NNE 17 24 9 13 1015.7 1015.7 0.2
17/05:30pm 15.3 8.9 5.2 51 4.8 N 28 35 15 19 1015.6 1015.6 0.2
17/05:00pm 15.2 10.2 6.5 56 4.2 NNW 22 30 12 16 1015.6 1015.6 0.2
17/04:30pm 15.5 10.8 6.2 54 4.5 NNW 20 30 11 16 1015.7 1015.7 0.2
17/04:00pm 15.6 10.1 6.1 53 4.6 NNW 24 32 13 17 1015.9 1015.9 0.2
17/03:30pm 15.5 9.5 5.4 51 4.8 NNW 26 39 14 21 1016.1 1016.1 0.2
17/03:00pm 15.9 10.9 6.3 53 4.7 NNW 22 33 12 18 1016.4 1016.4 0.2
17/02:30pm 15.6 11.0 6.3 54 4.5 NNW 20 32 11 17 1016.9 1016.9 0.2
17/02:00pm 15.9 10.7 7.1 56 4.3 NNW 24 37 13 20 1017.3 1017.3 0.2
17/01:30pm 15.2 10.5 6.0 54 4.4 NNW 20 30 11 16 1017.7 1017.7 0.2
17/01:00pm 15.2 9.9 6.7 57 4.1 NNW 24 37 13 20 1018.2 1018.2 0.2
17/12:30pm 15.5 10.2 7.0 57 4.2 NNW 24 37 13 20 1018.7 1018.7 0.2
17/12:00pm 14.8 9.2 5.6 54 4.4 NNW 24 37 13 20 1019.1 1019.1 0.0
17/11:30am 14.7 9.5 5.5 54 4.4 NNW 22 35 12 19 1019.6 1019.6 0.0
17/11:00am 14.6 9.7 5.1 53 4.4 NNW 20 33 11 18 1019.9 1019.9 0.0
17/10:30am 14.0 8.8 5.6 57 4.0 NNW 22 33 12 18 1020.2 1020.2 0.0
17/10:00am 13.4 8.4 6.5 63 3.3 NNW 22 33 12 18 1020.6 1020.6 0.0
17/09:30am 12.4 7.9 6.0 65 3.0 NNW 19 26 10 14 1020.9 1020.9 0.0
17/09:00am 10.8 6.5 5.1 68 2.6 NNW 17 20 9 11 1021.2 1021.2 0.6
17/08:30am 10.2 5.3 5.0 70 2.3 NNW 20 30 11 16 1021.4 1021.4 0.6
17/08:00am 9.8 4.1 5.0 72 2.2 NNW 24 32 13 17 1021.4 1021.4 0.6
17/07:30am 9.3 3.6 4.9 74 2.0 NNW 24 32 13 17 1021.3 1021.3 0.6
17/07:00am 9.1 3.8 5.1 76 1.8 N 22 30 12 16 1021.3 1021.3 0.6
17/06:30am 8.7 3.3 4.7 76 1.8 N 22 28 12 15 1021.2 1021.2 0.6
17/06:00am 8.9 3.2 5.1 77 1.7 N 24 30 13 16 1020.9 1020.9 0.6
17/05:30am 8.9 4.0 5.3 78 1.6 N 20 26 11 14 1021.0 1021.0 0.6
17/05:00am 9.8 6.5 6.5 80 1.5 NNW 13 19 7 10 1020.8 1020.8 0.6
17/04:30am 9.6 5.1 6.3 80 1.5 N 19 24 10 13 1020.7 1020.7 0.6
17/04:00am 10.0 6.3 6.3 78 1.7 NNW 15 22 8 12 1020.6 1020.6 0.6
17/03:30am 10.1 6.4 6.3 77 1.8 NNW 15 22 8 12 1020.8 1020.8 0.6
17/03:00am 10.4 7.3 7.1 80 1.6 NNW 13 20 7 11 1020.9 1020.9 0.6
17/02:30am 10.4 8.1 7.5 82 1.4 NNW 9 15 5 8 1021.0 1021.0 0.6
17/02:00am 9.5 7.5 7.3 86 1.0 NW 7 17 4 9 1021.2 1021.2 0.6
17/01:30am 9.3 7.3 7.3 87 0.9 NNW 7 13 4 7 1021.4 1021.4 0.6
17/01:00am 9.5 7.5 7.3 86 1.0 NNW 7 13 4 7 1021.6 1021.6 0.6
17/12:30am 9.7 8.2 6.8 82 1.4 NW 4 13 2 7 1021.7 1021.7 0.6
17/12:00am 9.8 6.7 7.4 85 1.1 NNW 13 19 7 10 1021.7 1021.7 0.6
 
Date/Time
EST
Temp
°C
App
Temp
°C
Dew
Point
°C
Rel
Hum
%
Delta-T
°C
Wind Press
QNH
hPa
Press
MSL
hPa
Rain since
9am
mm
Dir  Spd
km/h
Gust
km/h
Spd
kts
Gust
kts
16/11:30pm 9.2 6.0 7.0 86 1.0 N 13 17 7 9 1021.9 1021.9 0.6
16/11:00pm 9.7 7.3 7.1 84 1.2 NNW 9 13 5 7 1021.9 1021.9 0.6
16/10:30pm 10.3 8.0 7.4 82 1.4 NNW 9 15 5 8 1022.2 1022.2 0.6
16/10:00pm 10.4 8.7 7.5 82 1.4 NNW 6 9 3 5 1022.2 1022.2 0.6
16/09:30pm 10.3 7.4 6.6 78 1.7 NNW 11 19 6 10 1022.4 1022.4 0.6

Other Formats:

Comma delimited format used in spreadsheet applications
http://www.bom.gov.au/fwo/IDV60801/IDV60801.94892.axf

JavaScript Object Notation format (JSON) in row-major order
http://www.bom.gov.au/fwo/IDV60801/IDV60801.94892.json